Time;durP1;ratioP1;P1;durP2;ratioP2;P2;SDS_P1;SDS_P2;PMS_P1;PMS_P2;Temp;Humidity;BMP_temperature;BMP_pressure;BME280_temperature;BME280_humidity;BME280_pressure;Samples;Min_cycle;Max_cycle;Signal;HPM_P1;HPM_P2
2021/05/30 00:00:06;;;;;;;4.05;3.00;;;;;;;14.83;100.00;99343.61;1689620;83;21072;-74
2021/05/30 00:02:35;;;;;;;8.05;3.45;;;;;;;14.79;100.00;99333.14;1756907;81;21073;-75
2021/05/30 00:05:03;;;;;;;5.20;3.20;;;;;;;14.77;100.00;99339.86;1756664;81;21370;-74
2021/05/30 00:07:30;;;;;;;8.53;3.58;;;;;;;14.73;100.00;99350.84;1688900;83;21021;-73
2021/05/30 00:09:57;;;;;;;4.70;3.30;;;;;;;14.68;100.00;99347.94;1764513;81;21547;-74
2021/05/30 00:12:24;;;;;;;5.45;3.55;;;;;;;14.64;100.00;99351.61;1689920;83;21069;-74
2021/05/30 00:14:52;;;;;;;4.08;3.52;;;;;;;14.61;100.00;99343.37;1756679;81;21045;-73
2021/05/30 00:17:19;;;;;;;4.58;3.35;;;;;;;14.58;100.00;99353.31;1756659;81;21026;-73
2021/05/30 00:19:47;;;;;;;5.92;3.75;;;;;;;14.56;100.00;99349.94;1688232;83;21120;-73
2021/05/30 00:22:15;;;;;;;5.72;3.90;;;;;;;14.54;100.00;99352.58;1756876;81;21559;-75
2021/05/30 00:24:42;;;;;;;4.62;3.70;;;;;;;14.50;100.00;99352.17;1757137;80;21904;-73
2021/05/30 00:27:09;;;;;;;5.28;3.50;;;;;;;14.47;100.00;99349.04;1690381;83;21042;-73
2021/05/30 00:29:37;;;;;;;5.53;3.67;;;;;;;14.43;100.00;99355.44;1750686;81;21000;-74
2021/05/30 00:32:05;;;;;;;4.53;3.60;;;;;;;14.40;100.00;99351.77;1758345;81;21096;-73
2021/05/30 00:34:32;;;;;;;3.58;3.17;;;;;;;14.36;100.00;99358.66;1758413;81;21020;-74
2021/05/30 00:37:00;;;;;;;5.80;3.42;;;;;;;14.32;100.00;99353.34;1758186;81;21004;-74
2021/05/30 00:39:27;;;;;;;3.45;3.15;;;;;;;14.30;100.00;99356.80;1765594;81;21088;-74
2021/05/30 00:41:53;;;;;;;7.05;3.30;;;;;;;14.28;100.00;99354.83;1767148;81;21048;-74
2021/05/30 00:44:26;;;;;;;5.20;3.50;;;;;;;14.25;100.00;99360.14;1766887;81;20992;-74
2021/05/30 00:46:53;;;;;;;4.78;3.33;;;;;;;14.20;100.00;99355.86;1766937;81;21036;-74
2021/05/30 00:49:20;;;;;;;3.20;2.90;;;;;;;14.17;100.00;99365.83;1766978;81;21024;-74
2021/05/30 00:51:47;;;;;;;4.30;3.02;;;;;;;14.13;100.00;99360.48;1766967;81;21047;-75
2021/05/30 00:54:14;;;;;;;4.15;3.15;;;;;;;14.11;100.00;99362.58;1767007;81;21044;-74
2021/05/30 00:56:41;;;;;;;5.17;3.27;;;;;;;14.10;100.00;99365.00;1766923;81;21012;-76
2021/05/30 00:59:09;;;;;;;3.62;3.33;;;;;;;14.08;100.00;99364.34;1766887;81;21522;-76
2021/05/30 01:01:38;;;;;;;5.08;3.30;;;;;;;14.05;100.00;99375.95;1767097;81;21052;-75
2021/05/30 01:04:05;;;;;;;3.40;3.10;;;;;;;14.03;100.00;99376.70;1766921;81;21016;-75
2021/05/30 01:06:33;;;;;;;3.95;2.92;;;;;;;14.02;100.00;99375.05;1767082;81;21024;-75
2021/05/30 01:09:03;;;;;;;4.90;2.92;;;;;;;14.01;100.00;99377.97;1766841;81;21067;-74
2021/05/30 01:11:29;;;;;;;3.45;3.10;;;;;;;14.01;100.00;99368.45;1766855;80;21044;-75
2021/05/30 01:13:58;;;;;;;3.33;2.90;;;;;;;13.99;100.00;99374.09;1766831;81;21028;-76
2021/05/30 01:16:27;;;;;;;5.37;3.35;;;;;;;13.95;100.00;99367.91;1766883;81;21079;-76
2021/05/30 01:18:59;;;;;;;6.87;2.60;;;;;;;13.91;100.00;99366.14;1766866;81;21056;-75
2021/05/30 01:23:56;;;;;;;3.75;2.90;;;;;;;13.87;100.00;99377.13;1709677;83;21049;-76
2021/05/30 01:26:23;;;;;;;3.67;3.15;;;;;;;13.84;100.00;99370.74;1709855;84;21044;-75
2021/05/30 01:28:50;;;;;;;7.55;3.17;;;;;;;13.81;100.00;99364.36;1687566;84;21615;-72
2021/05/30 01:31:17;;;;;;;4.78;3.00;;;;;;;13.79;100.00;99367.81;1684092;85;21090;-71
2021/05/30 01:33:44;;;;;;;3.60;2.92;;;;;;;13.78;100.00;99366.16;1684274;85;21070;-73
2021/05/30 01:36:11;;;;;;;3.22;2.90;;;;;;;13.75;100.00;99365.20;1684108;85;21544;-72
2021/05/30 01:38:39;;;;;;;4.25;3.40;;;;;;;13.72;100.00;99366.44;1672126;85;21097;-72
2021/05/30 01:41:06;;;;;;;6.58;3.10;;;;;;;13.70;100.00;99369.06;1648559;86;21606;-71
2021/05/30 01:43:33;;;;;;;4.83;2.87;;;;;;;13.66;100.00;99381.70;1648684;87;21098;-71
2021/05/30 01:46:01;;;;;;;10.30;2.95;;;;;;;13.65;100.00;99384.61;1648563;87;21061;-71
2021/05/30 01:48:29;;;;;;;2.75;2.55;;;;;;;13.63;100.00;99392.14;1648485;87;21078;-72
2021/05/30 01:50:56;;;;;;;3.77;3.17;;;;;;;13.61;100.00;99397.78;1648613;87;21070;-73
2021/05/30 01:53:32;;;;;;;3.85;3.10;;;;;;;13.59;100.00;99397.68;1648463;87;21062;-71
2021/05/30 01:58:25;;;;;;;5.53;3.20;;;;;;;13.57;100.00;99399.77;1648449;87;21563;-72
2021/05/30 02:00:52;;;;;;;4.85;3.00;;;;;;;13.54;100.00;99391.50;1648590;87;21167;-73
2021/05/30 02:03:18;;;;;;;3.90;3.30;;;;;;;13.53;100.00;99393.05;1648717;87;21013;-72
2021/05/30 02:05:49;;;;;;;4.80;3.25;;;;;;;13.51;100.00;99403.30;1648282;87;21088;-72
2021/05/30 02:08:16;;;;;;;4.10;2.87;;;;;;;13.50;100.00;99408.43;1612951;89;21131;-72
2021/05/30 02:10:42;;;;;;;4.62;2.90;;;;;;;13.48;100.00;99404.56;1612923;89;21614;-72
2021/05/30 02:13:10;;;;;;;6.47;3.42;;;;;;;13.47;100.00;99409.16;1612852;89;21588;-72
2021/05/30 02:15:37;;;;;;;4.85;3.15;;;;;;;13.47;100.00;99412.38;1613056;89;21369;-72
2021/05/30 02:18:05;;;;;;;3.85;3.27;;;;;;;13.45;100.00;99410.39;1613187;89;21033;-73
2021/05/30 02:20:38;;;;;;;5.53;3.50;;;;;;;13.45;100.00;99416.66;1635646;86;21096;-72
2021/05/30 02:23:05;;;;;;;3.47;3.17;;;;;;;13.45;100.00;99423.97;1667385;86;21100;-72
2021/05/30 02:25:31;;;;;;;3.60;3.30;;;;;;;13.45;100.00;99415.30;1667315;86;21032;-72
2021/05/30 02:27:58;;;;;;;3.92;3.40;;;;;;;13.44;100.00;99423.14;1664680;86;21028;-73
2021/05/30 02:30:25;;;;;;;4.17;3.77;;;;;;;13.41;100.00;99425.44;1633895;88;21072;-73
2021/05/30 02:32:52;;;;;;;6.97;3.65;;;;;;;13.41;100.00;99429.50;1667294;86;21641;-72
2021/05/30 02:35:19;;;;;;;5.22;3.30;;;;;;;13.41;100.00;99428.97;1667370;86;21169;-72
2021/05/30 02:37:45;;;;;;;4.00;3.60;;;;;;;13.41;100.00;99433.05;1667438;86;21076;-72
2021/05/30 02:40:13;;;;;;;5.08;3.42;;;;;;;13.43;100.00;99434.20;1672376;85;21370;-72
2021/05/30 02:42:40;;;;;;;4.37;3.60;;;;;;;13.44;100.00;99425.03;1672729;86;21101;-72
2021/05/30 02:45:07;;;;;;;3.67;3.37;;;;;;;13.43;100.00;99438.28;1672832;86;21540;-73
2021/05/30 02:47:34;;;;;;;3.50;3.20;;;;;;;13.42;100.00;99434.73;1672368;86;21639;-73
2021/05/30 02:50:03;;;;;;;3.72;3.12;;;;;;;13.43;100.00;99435.56;1672478;86;21609;-70
2021/05/30 02:52:30;;;;;;;5.85;3.33;;;;;;;13.43;100.00;99435.03;1672670;86;21094;-73
2021/05/30 02:54:57;;;;;;;7.40;3.50;;;;;;;13.44;100.00;99438.61;1672586;85;21105;-72
2021/05/30 02:57:23;;;;;;;6.35;3.70;;;;;;;13.44;100.00;99434.53;1672794;86;21061;-71
2021/05/30 02:59:50;;;;;;;3.95;3.20;;;;;;;13.45;100.00;99438.38;1672745;86;21081;-73
2021/05/30 03:02:17;;;;;;;3.30;3.00;;;;;;;13.45;100.00;99439.73;1672514;86;21615;-73
2021/05/30 03:04:44;;;;;;;5.75;3.40;;;;;;;13.47;100.00;99435.46;1704533;81;21527;-73
2021/05/30 03:07:10;;;;;;;3.50;3.20;;;;;;;13.48;100.00;99442.05;1761872;81;21037;-73
2021/05/30 03:09:38;;;;;;;3.98;3.08;;;;;;;13.48;100.00;99433.91;1696493;84;21121;-72
2021/05/30 03:12:07;;;;;;;7.33;2.92;;;;;;;13.50;100.00;99439.13;1696523;84;21057;-72
2021/05/30 03:14:34;;;;;;;2.98;2.67;;;;;;;13.53;100.00;99436.02;1761620;81;21053;-73
2021/05/30 03:17:00;;;;;;;7.72;3.20;;;;;;;13.57;100.00;99438.63;1761789;81;21176;-72
2021/05/30 03:19:27;;;;;;;3.30;3.00;;;;;;;13.60;100.00;99445.55;1696461;84;21065;-72
2021/05/30 03:21:54;;;;;;;4.12;2.83;;;;;;;13.63;100.00;99447.33;1761805;81;21535;-72
2021/05/30 03:24:21;;;;;;;5.00;2.60;;;;;;;13.67;100.00;99447.75;1696588;84;21113;-72
2021/05/30 03:26:48;;;;;;;3.98;2.65;;;;;;;13.68;100.00;99451.59;1761546;81;21575;-72
2021/05/30 03:29:14;;;;;;;4.62;2.70;;;;;;;13.71;100.00;99449.54;1689945;84;21062;-72
2021/05/30 03:31:41;;;;;;;2.70;2.50;;;;;;;13.72;100.00;99449.30;1761884;81;21058;-72
2021/05/30 03:34:09;;;;;;;4.78;3.00;;;;;;;13.76;100.00;99449.23;1696589;84;21037;-73
2021/05/30 03:36:37;;;;;;;3.17;2.62;;;;;;;13.80;100.00;99447.77;1761867;81;21524;-72
2021/05/30 03:39:06;;;;;;;6.65;3.30;;;;;;;13.86;100.00;99448.81;1759738;81;21551;-71
2021/05/30 03:41:38;;;;;;;5.15;3.83;;;;;;;13.92;100.00;99452.61;1756964;81;21081;-73
2021/05/30 03:44:05;;;;;;;8.20;5.00;;;;;;;13.99;100.00;99448.84;1688818;83;21053;-72
2021/05/30 03:46:32;;;;;;;5.00;4.05;;;;;;;14.04;100.00;99451.77;1756663;81;21002;-72
2021/05/30 03:49:00;;;;;;;4.05;3.50;;;;;;;14.07;100.00;99451.87;1688760;83;21564;-72
2021/05/30 03:51:27;;;;;;;3.27;2.98;;;;;;;14.11;100.00;99435.98;1756717;81;21547;-71
2021/05/30 03:53:54;;;;;;;5.92;3.20;;;;;;;14.12;100.00;99441.20;1756538;82;20999;-71
2021/05/30 03:56:20;;;;;;;4.87;2.90;;;;;;;14.15;100.00;99436.72;1687958;83;21050;-73
2021/05/30 03:58:47;;;;;;;4.67;2.75;;;;;;;14.19;100.00;99440.69;1756815;81;21026;-72
2021/05/30 04:01:14;;;;;;;3.87;2.80;;;;;;;14.25;100.00;99440.36;1688577;83;21077;-70
2021/05/30 04:03:40;;;;;;;5.12;3.10;;;;;;;14.33;100.00;99444.77;1764150;81;21026;-72
2021/05/30 04:06:08;;;;;;;3.37;3.00;;;;;;;14.39;100.00;99439.30;1757017;81;21358;-73
2021/05/30 04:08:35;;;;;;;4.58;2.50;;;;;;;14.46;100.00;99443.38;1756924;80;21527;-71
2021/05/30 04:11:01;;;;;;;3.33;3.02;;;;;;;14.52;100.00;99437.12;1688784;83;21598;-72
2021/05/30 04:13:28;;;;;;;3.15;2.92;;;;;;;14.62;100.00;99435.34;1756975;81;21034;-71
2021/05/30 04:15:56;;;;;;;3.08;2.80;;;;;;;14.75;100.00;99426.30;1756686;82;21081;-71
2021/05/30 04:18:23;;;;;;;3.65;3.10;;;;;;;14.90;100.00;99435.06;1688986;83;21567;-72
2021/05/30 04:20:50;;;;;;;3.37;2.45;;;;;;;15.02;100.00;99431.16;1702514;84;21579;-71
2021/05/30 04:23:17;;;;;;;5.95;3.00;;;;;;;15.17;100.00;99426.29;1702615;83;21368;-72
2021/05/30 04:25:44;;;;;;;3.67;2.87;;;;;;;15.33;100.00;99430.91;1756531;82;21089;-72
2021/05/30 04:28:11;;;;;;;6.28;2.95;;;;;;;15.42;100.00;99424.69;1680945;83;21047;-72
2021/05/30 04:30:38;;;;;;;3.20;2.90;;;;;;;15.51;100.00;99422.02;1754686;82;21054;-72
2021/05/30 04:33:05;;;;;;;4.25;2.70;;;;;;;15.63;100.00;99416.70;1756486;82;21563;-71
2021/05/30 04:35:32;;;;;;;3.37;2.60;;;;;;;15.76;100.00;99415.30;1758120;81;21000;-72
2021/05/30 04:37:59;;;;;;;2.85;2.58;;;;;;;15.90;100.00;99406.48;1689396;83;21085;-72
2021/05/30 04:40:25;;;;;;;3.37;2.40;;;;;;;16.01;100.00;99413.14;1756920;81;21062;-71
2021/05/30 04:42:52;;;;;;;3.87;2.70;;;;;;;16.12;100.00;99397.41;1756629;81;21022;-72
2021/05/30 04:45:21;;;;;;;4.12;2.70;;;;;;;16.46;100.00;99396.56;1756575;81;21053;-73
2021/05/30 04:47:50;;;;;;;5.08;2.22;;;;;;;16.46;100.00;99396.56;1756498;81;21110;-80
2021/05/30 04:50:18;;;;;;;4.70;2.83;;;;;;;16.56;100.00;99395.52;1756950;81;21528;-80
2021/05/30 04:52:44;;;;;;;3.17;2.40;;;;;;;16.56;100.00;99387.88;1687707;83;21034;-79
2021/05/30 04:55:13;;;;;;;5.70;2.55;;;;;;;16.51;100.00;99378.98;1756758;82;21042;-77
2021/05/30 04:57:40;;;;;;;3.37;2.30;;;;;;;16.62;100.00;99377.40;1757080;81;21525;-79
2021/05/30 05:00:09;;;;;;;3.08;2.50;;;;;;;16.77;100.00;99377.86;1691235;83;21578;-78
2021/05/30 05:02:36;;;;;;;2.60;2.40;;;;;;;16.84;100.00;99372.37;1757051;81;21022;-79
2021/05/30 05:05:03;;;;;;;2.75;2.50;;;;;;;16.91;100.00;99369.53;1764505;81;21049;-78
2021/05/30 05:07:30;;;;;;;4.05;2.20;;;;;;;17.07;100.00;99373.84;1689104;83;21578;-78
2021/05/30 05:09:58;;;;;;;2.20;2.02;;;;;;;17.23;100.00;99365.55;1756586;81;21536;-79
2021/05/30 05:12:24;;;;;;;3.22;2.00;;;;;;;17.34;100.00;99367.20;1756751;81;21042;-79
2021/05/30 05:14:52;;;;;;;1.77;1.67;;;;;;;17.37;100.00;99360.73;1764428;81;21552;-73
2021/05/30 05:17:18;;;;;;;2.20;1.82;;;;;;;17.38;100.00;99356.92;1763992;81;21021;-72
2021/05/30 05:19:45;;;;;;;3.85;1.62;;;;;;;17.34;100.00;99361.20;1690185;83;21136;-73
2021/05/30 05:22:12;;;;;;;2.60;1.60;;;;;;;17.33;100.00;99362.78;1756849;81;21026;-81
2021/05/30 05:24:39;;;;;;;1.90;1.80;;;;;;;17.29;100.00;99354.77;1757045;81;21170;-80
2021/05/30 05:27:08;;;;;;;1.47;1.37;;;;;;;17.32;100.00;99364.69;1756966;82;21066;-79
2021/05/30 05:29:38;;;;;;;1.90;1.50;;;;;;;17.34;100.00;99361.20;1753238;82;21006;-77
2021/05/30 05:32:05;;;;;;;1.45;1.35;;;;;;;17.52;100.00;99363.58;1757405;81;20994;-78
2021/05/30 05:34:32;;;;;;;2.20;2.00;;;;;;;17.80;100.00;99363.75;1756751;82;21579;-77
2021/05/30 05:36:59;;;;;;;1.92;1.60;;;;;;;18.03;100.00;99362.16;1757000;81;21054;-78
2021/05/30 05:39:27;;;;;;;4.12;1.55;;;;;;;18.25;100.00;99365.67;1690875;83;21117;-79
2021/05/30 05:41:56;;;;;;;2.55;1.67;;;;;;;18.37;100.00;99351.45;1696488;84;21434;-78
2021/05/30 05:44:23;;;;;;;1.70;1.60;;;;;;;18.42;100.00;99361.16;1761757;81;21050;-78
2021/05/30 05:46:50;;;;;;;1.62;1.50;;;;;;;18.62;100.00;99355.83;1740971;81;21042;-77
2021/05/30 05:49:17;;;;;;;3.58;1.57;;;;;;;18.83;100.00;99359.88;1762087;81;21026;-78
2021/05/30 05:51:43;;;;;;;1.65;1.55;;;;;;;19.02;100.00;99345.48;1762172;81;21634;-75
2021/05/30 05:54:10;;;;;;;5.25;1.85;;;;;;;19.22;100.00;99349.97;1696511;84;21531;-79
2021/05/30 05:56:36;;;;;;;4.28;1.65;;;;;;;19.35;100.00;99347.46;1696741;84;20998;-78
2021/05/30 05:59:04;;;;;;;1.82;1.72;;;;;;;19.39;100.00;99343.17;1761477;81;21053;-79
2021/05/30 06:01:31;;;;;;;2.20;1.40;;;;;;;19.34;100.00;99341.70;1761892;81;21563;-77
2021/05/30 06:03:58;;;;;;;1.80;1.60;;;;;;;19.38;100.00;99348.34;1762433;81;21022;-78
2021/05/30 06:06:24;;;;;;;4.20;1.60;;;;;;;19.52;100.00;99348.88;1696740;84;21034;-79
2021/05/30 06:08:51;;;;;;;1.67;1.55;;;;;;;19.57;100.00;99354.46;1696668;84;21101;-82
2021/05/30 06:11:18;;;;;;;3.20;1.65;;;;;;;19.63;100.00;99357.57;1696652;84;21122;-78
2021/05/30 06:13:45;;;;;;;3.55;1.60;;;;;;;19.82;100.00;99354.64;1696670;83;21054;-82
2021/05/30 06:16:11;;;;;;;3.12;1.60;;;;;;;20.08;100.00;99354.53;1696842;84;21038;-79
2021/05/30 06:18:38;;;;;;;2.20;1.50;;;;;;;20.33;100.00;99360.09;1761478;81;21575;-80
2021/05/30 06:21:05;;;;;;;2.70;1.60;;;;;;;20.44;100.00;99360.55;1762016;81;21026;-80
2021/05/30 06:23:32;;;;;;;3.58;1.80;;;;;;;20.45;100.00;99352.58;1761752;81;21070;-78
2021/05/30 06:25:58;;;;;;;2.17;1.90;;;;;;;20.35;100.00;99361.52;1762000;81;21583;-79
2021/05/30 06:28:25;;;;;;;1.60;1.35;;;;;;;20.27;100.00;99353.18;1689931;84;21035;-72
2021/05/30 06:30:52;;;;;;;3.35;1.57;;;;;;;20.39;100.00;99344.00;1696182;84;21596;-72
2021/05/30 06:33:19;;;;;;;1.67;1.52;;;;;;;20.65;100.00;99354.83;1761766;81;21034;-71
2021/05/30 06:35:46;;;;;;;2.35;2.05;;;;;;;20.85;100.00;99356.45;1696496;84;21045;-71
2021/05/30 06:38:13;;;;;;;2.85;2.05;;;;;;;20.89;100.00;99363.64;1696179;84;21078;-71
2021/05/30 06:40:40;;;;;;;2.65;2.33;;;;;;;20.70;100.00;99362.29;1700944;83;21113;-70
2021/05/30 06:43:09;;;;;;;5.97;2.65;;;;;;;20.64;100.00;99371.83;1761793;80;21061;-70
2021/05/30 06:45:35;;;;;;;3.60;2.40;;;;;;;20.57;100.00;99367.03;1761511;81;21050;-70
2021/05/30 06:48:03;;;;;;;2.52;2.12;;;;;;;20.58;100.00;99372.83;1695706;84;21599;-70
2021/05/30 06:50:31;;;;;;;3.42;2.05;;;;;;;20.56;100.00;99370.88;1696411;84;21058;-71
2021/05/30 06:52:58;;;;;;;2.35;2.15;;;;;;;20.72;100.00;99374.70;1761737;81;21077;-72
2021/05/30 06:55:24;;;;;;;6.42;5.12;;;;;;;20.74;100.00;99380.77;1761708;81;21017;-73
2021/05/30 06:57:51;;;;;;;9.85;4.10;;;;;;;20.72;100.00;99380.20;1761519;81;21551;-71
2021/05/30 07:00:20;;;;;;;4.15;2.35;;;;;;;20.64;100.00;99380.62;1761489;81;21539;-71
2021/05/30 07:02:49;;;;;;;4.12;1.90;;;;;;;20.60;100.00;99391.80;1696246;84;21073;-71
2021/05/30 07:05:17;;;;;;;1.98;1.87;;;;;;;20.86;100.00;99390.28;1696287;84;21049;-70
2021/05/30 07:07:43;;;;;;;4.37;2.20;;;;;;;21.21;100.00;99389.04;1696551;84;21030;-71
2021/05/30 07:10:13;;;;;;;3.50;2.05;;;;;;;21.60;100.00;99384.81;1696509;84;21086;-71
2021/05/30 07:12:40;;;;;;;4.45;2.17;;;;;;;21.86;100.00;99384.52;1696413;84;21544;-70
2021/05/30 07:15:09;;;;;;;3.50;2.20;;;;;;;21.82;100.00;99390.83;1696575;84;21058;-71
2021/05/30 07:17:37;;;;;;;2.75;2.47;;;;;;;21.80;100.00;99383.65;1696445;84;21310;-70
2021/05/30 07:20:08;;;;;;;2.98;2.42;;;;;;;21.70;100.00;99386.30;1761862;81;21130;-71
2021/05/30 07:22:35;;;;;;;4.30;2.12;;;;;;;21.80;100.00;99398.78;1696408;84;21564;-71
2021/05/30 07:25:02;;;;;;;5.37;2.35;;;;;;;21.93;100.00;99389.81;1696533;84;21069;-71
2021/05/30 07:27:29;;;;;;;3.92;2.35;;;;;;;22.15;100.00;99391.09;1761729;81;21042;-70
2021/05/30 07:29:56;;;;;;;4.15;2.40;;;;;;;22.18;100.00;99382.31;1679256;84;21064;-71
2021/05/30 07:32:23;;;;;;;4.28;2.37;;;;;;;21.94;100.00;99384.05;1733206;83;21061;-78
2021/05/30 07:34:49;;;;;;;4.10;2.10;;;;;;;22.04;100.00;99395.68;1733230;83;21052;-78
2021/05/30 07:37:16;;;;;;;2.02;1.72;;;;;;;22.14;100.00;99387.52;1733275;83;21041;-79
2021/05/30 07:39:43;;;;;;;5.37;2.20;;;;;;;22.10;100.00;99393.27;1734115;82;21088;-79
2021/05/30 07:42:10;;;;;;;2.25;2.05;;;;;;;22.03;100.00;99395.41;1741399;82;20998;-78
2021/05/30 07:44:37;;;;;;;2.22;1.98;;;;;;;22.16;100.00;99403.22;1741486;82;21017;-80
2021/05/30 07:47:05;;;;;;;2.62;1.82;;;;;;;22.24;100.00;99406.58;1741468;82;21013;-79
2021/05/30 07:49:31;;;;;;;9.38;2.45;;;;;;;22.32;100.00;99397.31;1741461;82;21118;-79
2021/05/30 07:51:59;;;;;;;3.60;2.05;;;;;;;22.52;100.00;99404.91;1741325;82;21554;-79
2021/05/30 07:54:26;;;;;;;1.90;1.80;;;;;;;22.72;100.00;99406.13;1741489;82;21056;-78
2021/05/30 07:56:53;;;;;;;4.35;1.85;;;;;;;22.95;100.00;99415.90;1741618;82;21506;-80
2021/05/30 07:59:20;;;;;;;3.25;2.12;;;;;;;23.15;100.00;99411.05;1741494;82;21542;-78
2021/05/30 08:01:48;;;;;;;3.00;1.80;;;;;;;22.98;100.00;99411.20;1741566;82;21025;-77
2021/05/30 08:04:15;;;;;;;2.47;1.70;;;;;;;22.86;100.00;99417.48;1741656;82;21096;-78
2021/05/30 08:06:42;;;;;;;4.97;1.75;;;;;;;22.72;100.00;99421.28;1741886;82;21057;-78
2021/05/30 08:09:10;;;;;;;5.15;1.80;;;;;;;22.49;100.00;99422.52;1741753;82;21056;-79
2021/05/30 08:11:38;;;;;;;4.58;1.82;;;;;;;22.31;100.00;99421.83;1741732;82;21601;-76
2021/05/30 08:14:07;;;;;;;1.80;1.70;;;;;;;22.41;100.00;99431.26;1741977;82;21153;-78
2021/05/30 08:16:33;;;;;;;4.97;2.35;;;;;;;22.61;100.00;99427.81;1741240;81;21546;-79
2021/05/30 08:19:02;;;;;;;6.50;2.52;;;;;;;22.75;100.00;99439.50;1742004;82;21076;-78
2021/05/30 08:21:29;;;;;;;4.55;2.40;;;;;;;22.88;100.00;99435.42;1741927;82;21033;-80
2021/05/30 08:23:56;;;;;;;4.25;1.90;;;;;;;22.84;100.00;99430.18;1741757;82;21483;-79
2021/05/30 08:26:23;;;;;;;2.65;2.27;;;;;;;23.08;100.00;99439.42;1741959;82;21056;-78
2021/05/30 08:28:51;;;;;;;5.00;2.33;;;;;;;23.39;100.00;99431.26;1743987;81;22197;-79
2021/05/30 08:31:18;;;;;;;10.68;4.40;;;;;;;23.61;100.00;99433.83;1704745;84;22434;-79
2021/05/30 08:33:44;;;;;;;11.93;4.65;;;;;;;23.90;100.00;99434.73;1770390;81;21033;-78
2021/05/30 08:36:13;;;;;;;9.48;4.12;;;;;;;24.15;100.00;99436.16;1770085;81;21186;-78
2021/05/30 08:38:40;;;;;;;7.70;3.70;;;;;;;24.31;100.00;99436.13;1704578;84;21069;-77
2021/05/30 08:41:07;;;;;;;3.55;3.02;;;;;;;24.44;100.00;99441.12;1765370;81;21162;-82
2021/05/30 08:43:34;;;;;;;6.05;3.15;;;;;;;24.55;100.00;99433.11;1762476;81;21087;-80
2021/05/30 08:46:01;;;;;;;8.95;3.98;;;;;;;24.40;100.00;99433.94;1762508;81;21041;-77
2021/05/30 08:48:28;;;;;;;10.78;4.08;;;;;;;24.50;100.00;99442.75;1762189;81;21061;-78
2021/05/30 08:51:06;;;;;;;7.45;3.80;;;;;;;24.67;100.00;99450.80;1762329;81;21034;-73
2021/05/30 08:53:37;;;;;;;17.37;4.08;;;;;;;24.74;100.00;99443.03;1696411;84;21540;-72
2021/05/30 08:56:06;;;;;;;7.22;3.60;;;;;;;24.91;100.00;99446.03;1696337;84;21050;-71
2021/05/30 08:58:38;;;;;;;6.00;3.72;;;;;;;24.95;100.00;99449.35;1761599;81;21021;-72
2021/05/30 09:01:22;;;;;;;5.65;3.40;;;;;;;25.13;100.00;99441.55;1761628;81;21057;-72
2021/05/30 09:06:36;;;;;;;5.33;3.02;;;;;;;25.10;100.00;99441.55;1663376;85;21097;-72
2021/05/30 09:09:09;;;;;;;5.55;3.35;;;;;;;24.94;100.00;99452.39;1665611;85;21329;-72
2021/05/30 09:11:42;;;;;;;;;;;;;;;25.13;100.00;99452.63;1638204;87;21546;-72
2021/05/30 09:14:13;;;;;;;;;;;;;;;25.34;100.00;99448.69;1625555;88;20167;-72
2021/05/30 09:17:11;;;;;;;9.23;4.20;;;;;;;25.64;100.00;99447.42;1584240;89;20162;-72
2021/05/30 09:19:46;;;;;;;12.75;3.92;;;;;;;25.93;100.00;99447.00;1543250;93;21136;-72
2021/05/30 09:22:28;;;;;;;11.53;5.25;;;;;;;26.22;100.00;99448.18;1543028;93;21192;-72
2021/05/30 09:25:13;;;;;;;11.85;4.72;;;;;;;26.19;100.00;99459.30;1543470;92;21116;-72
2021/05/30 09:28:01;;;;;;;13.75;4.70;;;;;;;25.82;100.00;99453.70;1542764;92;21075;-72
2021/05/30 09:30:34;;;;;;;12.07;3.80;;;;;;;25.79;100.00;99452.06;1544140;93;21163;-72
2021/05/30 09:33:15;;;;;;;8.00;3.40;;;;;;;25.97;100.00;99459.72;1547413;91;21095;-71
2021/05/30 09:35:52;;;;;;;6.05;3.40;;;;;;;26.14;100.00;99455.17;1467949;98;21134;-72
2021/05/30 09:38:28;;;;;;;13.68;4.12;;;;;;;25.96;100.00;99460.84;1404809;102;21167;-77
2021/05/30 09:40:57;;;;;;;7.92;3.77;;;;;;;26.02;100.00;99464.41;1404888;102;21251;-78
2021/05/30 09:43:39;;;;;;;6.70;3.55;;;;;;;26.24;100.00;99472.27;1406162;100;21661;-76
2021/05/30 09:46:12;;;;;;;5.30;2.80;;;;;;;26.38;100.00;99469.66;1392972;102;21629;-76
2021/05/30 09:48:47;;;;;;;4.83;2.37;;;;;;;26.26;100.00;99470.03;1392819;103;21659;-76
2021/05/30 09:51:39;;;;;;;8.00;2.98;;;;;;;26.16;100.00;99469.56;1400088;102;21181;-77
2021/05/30 09:54:13;;;;;;;4.95;2.70;;;;;;;26.16;100.00;99467.36;1394103;103;21185;-78
2021/05/30 09:56:45;;;;;;;5.70;2.55;;;;;;;26.18;100.00;99466.51;1393997;103;21701;-77
2021/05/30 09:59:15;;;;;;;6.92;2.62;;;;;;;26.26;100.00;99474.19;1394116;103;21139;-76
2021/05/30 10:02:00;;;;;;;2.67;2.47;;;;;;;26.21;100.00;99471.48;1394041;103;21175;-76
2021/05/30 10:04:30;;;;;;;5.58;2.72;;;;;;;26.42;100.00;99469.34;1402153;102;21130;-80
2021/05/30 10:06:58;;;;;;;2.47;2.02;;;;;;;26.56;100.00;99472.28;1402641;102;21206;-78
2021/05/30 10:09:28;;;;;;;2.50;2.00;;;;;;;26.25;100.00;99473.36;1441106;99;21141;-77
2021/05/30 10:11:58;;;;;;;2.00;1.80;;;;;;;26.02;100.00;99476.87;1465416;97;21638;-77
2021/05/30 10:14:26;;;;;;;4.75;1.90;;;;;;;25.95;100.00;99466.10;1525136;93;21600;-78
2021/05/30 10:16:53;;;;;;;5.50;2.85;;;;;;;25.82;100.00;99477.80;1533294;94;21128;-77
2021/05/30 10:19:31;;;;;;;7.67;3.72;;;;;;;25.59;100.00;99475.98;1533133;94;21115;-77
2021/05/30 10:21:59;;;;;;;3.83;2.37;;;;;;;25.66;100.00;99483.41;1533327;94;21103;-77
2021/05/30 10:24:26;;;;;;;4.08;2.30;;;;;;;26.03;100.00;99477.13;1533208;93;21100;-78
2021/05/30 10:27:21;;;;;;;7.53;3.42;;;;;;;26.24;100.00;99476.42;1533223;94;21641;-77
2021/05/30 10:30:15;;;;;;;4.33;2.90;;;;;;;26.17;100.00;99478.16;1500935;91;21894;-77
2021/05/30 10:32:45;;;;;;;2.15;1.95;;;;;;;26.03;100.00;99474.34;1536534;92;21172;-78
2021/05/30 10:35:24;;;;;;;2.67;2.05;;;;;;;25.65;100.00;99478.16;1539874;92;21560;-78
2021/05/30 10:37:54;;;;;;;3.77;2.33;;;;;;;25.58;100.00;99479.28;1508303;95;21645;-78
2021/05/30 10:40:26;;;;;;;4.53;2.55;;;;;;;25.50;100.00;99479.89;1508332;94;21186;-77
2021/05/30 10:43:13;;;;;;;2.00;1.90;;;;;;;25.37;100.00;99486.88;1598985;88;21277;-78
2021/05/30 10:45:53;;;;;;;2.50;1.62;;;;;;;25.37;100.00;99473.03;1621520;88;21072;-78
2021/05/30 10:48:21;;;;;;;3.35;2.35;;;;;;;25.66;100.00;99474.30;1633440;87;21105;-77
2021/05/30 10:50:56;;;;;;;31.50;23.77;;;;;;;25.80;100.00;99471.70;1640969;87;21598;-76
2021/05/30 10:53:42;;;;;;;10.32;4.72;;;;;;;25.94;100.00;99481.05;1578186;91;21108;-76
2021/05/30 10:56:19;;;;;;;6.53;3.30;;;;;;;26.00;100.00;99486.84;1578345;91;21131;-76
2021/05/30 10:59:14;;;;;;;4.97;2.42;;;;;;;25.93;100.00;99491.84;1578172;91;21594;-76
2021/05/30 11:01:49;;;;;;;4.67;2.47;;;;;;;25.91;100.00;99489.92;1578506;91;21131;-78
2021/05/30 11:04:30;;;;;;;9.95;3.80;;;;;;;25.72;100.00;99494.72;1578358;91;21083;-78
2021/05/30 11:07:21;;;;;;;7.53;4.60;;;;;;;25.59;100.00;99480.13;1625797;86;21118;-77
2021/05/30 11:09:58;;;;;;;6.47;3.67;;;;;;;25.36;100.00;99489.92;1668034;86;21126;-77
2021/05/30 11:12:49;;;;;;;4.22;2.80;;;;;;;25.49;100.00;99485.70;1668109;86;21063;-75
2021/05/30 11:15:20;;;;;;;6.72;2.80;;;;;;;25.70;100.00;99501.66;1668048;86;21067;-76
2021/05/30 11:17:54;;;;;;;5.72;2.55;;;;;;;25.72;100.00;99488.36;1668007;86;21055;-77
2021/05/30 11:20:39;;;;;;;5.97;3.12;;;;;;;25.95;100.00;99497.39;1667995;86;21180;-77
2021/05/30 11:23:13;;;;;;;5.15;3.20;;;;;;;26.03;100.00;99494.59;1647352;87;21092;-77
2021/05/30 11:25:54;;;;;;;6.92;2.60;;;;;;;26.12;100.00;99497.02;1607597;89;21212;-78
2021/05/30 11:28:25;;;;;;;4.28;2.52;;;;;;;26.51;100.00;99504.48;1583498;89;21539;-78
2021/05/30 11:31:04;;;;;;;6.08;2.40;;;;;;;26.89;99.54;99503.32;1538843;93;21124;-77
2021/05/30 11:36:29;;;;;;;6.05;3.30;;;;;;;26.62;97.85;99508.02;1498818;96;21166;-78
2021/05/30 11:39:09;;;;;;;4.08;2.80;;;;;;;26.28;94.50;99504.66;1498993;96;21154;-78
2021/05/30 11:41:46;;;;;;;6.00;2.87;;;;;;;25.97;100.00;99509.56;1498982;96;21157;-77
2021/05/30 11:44:15;;;;;;;5.75;3.62;;;;;;;26.16;100.00;99518.05;1485648;96;21139;-78